createdAt,value
2018-10-17T00:00:14.571Z,15.83
2018-10-17T00:02:44.135Z,16.60
2018-10-17T00:05:13.678Z,16.93
2018-10-17T00:07:43.190Z,16.07
2018-10-17T00:10:12.843Z,16.33
2018-10-17T00:12:42.526Z,16.73
2018-10-17T00:15:12.071Z,16.53
2018-10-17T00:17:41.602Z,17.27
2018-10-17T00:20:11.696Z,18.07
2018-10-17T00:22:41.208Z,18.33
2018-10-17T00:25:10.816Z,17.83
2018-10-17T00:27:40.326Z,17.50
2018-10-17T00:30:11.754Z,16.77
2018-10-17T00:32:45.047Z,17.47
2018-10-17T00:35:14.730Z,17.43
2018-10-17T00:37:44.155Z,17.57
2018-10-17T00:40:13.712Z,17.97
2018-10-17T00:42:43.338Z,16.93
2018-10-17T00:45:12.894Z,18.50
2018-10-17T00:47:42.433Z,18.17
2018-10-17T00:50:11.963Z,18.00
2018-10-17T00:52:41.518Z,17.33
2018-10-17T00:55:11.051Z,17.07
2018-10-17T00:57:40.579Z,17.13
2018-10-17T01:00:10.270Z,15.83
2018-10-17T01:02:39.792Z,16.10
2018-10-17T01:05:09.421Z,15.17
2018-10-17T01:07:38.906Z,15.47
2018-10-17T01:10:08.471Z,14.40
2018-10-17T01:12:37.968Z,14.43
2018-10-17T01:15:07.607Z,14.37
2018-10-17T01:17:37.150Z,13.97
2018-10-17T01:20:07.790Z,13.83
2018-10-17T01:22:37.503Z,13.60
2018-10-17T01:25:07.281Z,13.73
2018-10-17T01:27:36.966Z,13.23
2018-10-17T01:30:07.559Z,13.83
2018-10-17T01:32:37.115Z,12.60
2018-10-17T01:35:07.168Z,13.60
2018-10-17T01:37:36.673Z,12.47
2018-10-17T01:40:06.843Z,13.30
2018-10-17T01:42:36.481Z,12.87
2018-10-17T01:45:06.955Z,12.53
2018-10-17T01:47:36.555Z,13.03
2018-10-17T01:50:06.774Z,13.17
2018-10-17T01:52:36.314Z,13.03
2018-10-17T01:55:06.965Z,12.93
2018-10-17T01:57:36.638Z,13.67
2018-10-17T02:00:06.526Z,13.87
2018-10-17T02:02:36.047Z,14.33
2018-10-17T02:05:05.830Z,15.30
2018-10-17T02:07:35.324Z,15.33
2018-10-17T02:10:04.892Z,15.90
2018-10-17T02:12:34.446Z,15.90
2018-10-17T02:15:04.004Z,16.30
2018-10-17T02:17:33.599Z,16.50
2018-10-17T02:20:03.107Z,16.10
2018-10-17T02:22:32.707Z,16.83
2018-10-17T02:25:02.290Z,17.17
2018-10-17T02:27:31.819Z,17.17
2018-10-17T02:30:01.434Z,16.83
2018-10-17T02:32:30.862Z,17.60
2018-10-17T02:35:05.439Z,16.77
2018-10-17T02:37:34.889Z,16.77
2018-10-17T02:40:04.482Z,17.23
2018-10-17T02:42:34.010Z,15.20
2018-10-17T02:45:03.572Z,15.37
2018-10-17T02:47:33.125Z,15.90
2018-10-17T02:50:06.758Z,14.93
2018-10-17T02:52:36.875Z,15.00
2018-10-17T02:55:06.661Z,14.40
2018-10-17T02:57:36.575Z,14.13
2018-10-17T03:00:07.071Z,14.73
2018-10-17T03:02:36.591Z,14.80
2018-10-17T03:05:06.434Z,13.80
2018-10-17T03:07:35.983Z,14.20
2018-10-17T03:10:05.558Z,14.10
2018-10-17T03:12:35.098Z,14.07
2018-10-17T03:15:04.756Z,12.70
2018-10-17T03:17:34.299Z,14.93
2018-10-17T03:20:04.043Z,11.57
2018-10-17T03:22:33.599Z,11.47
2018-10-17T03:25:03.188Z,11.37
2018-10-17T03:27:32.747Z,12.67
2018-10-17T03:30:02.297Z,11.87
2018-10-17T03:32:31.859Z,12.03
2018-10-17T03:35:01.449Z,12.03
2018-10-17T03:37:31.015Z,12.17
2018-10-17T03:40:00.553Z,12.17
2018-10-17T03:42:30.086Z,13.00
2018-10-17T03:44:59.640Z,12.50
2018-10-17T03:47:29.130Z,14.80
2018-10-17T03:49:58.696Z,13.00
2018-10-17T03:52:28.232Z,13.57
2018-10-17T03:54:57.798Z,13.10
2018-10-17T03:57:27.344Z,13.57
2018-10-17T03:59:56.843Z,12.73
2018-10-17T04:02:26.438Z,13.50
2018-10-17T04:04:56.022Z,13.90
2018-10-17T04:07:25.544Z,12.80
2018-10-17T04:09:55.086Z,13.80
2018-10-17T04:12:25.051Z,14.07
2018-10-17T04:14:54.589Z,12.77
2018-10-17T04:17:24.098Z,12.90
2018-10-17T04:19:53.684Z,13.00
2018-10-17T04:22:23.235Z,13.80
2018-10-17T04:24:52.805Z,13.33
2018-10-17T04:27:22.367Z,13.30
2018-10-17T04:29:51.917Z,14.07
2018-10-17T04:32:21.453Z,15.13
2018-10-17T04:34:51.005Z,14.40
2018-10-17T04:37:20.503Z,14.37
2018-10-17T04:39:50.070Z,15.17
2018-10-17T04:42:19.613Z,13.67
2018-10-17T04:44:49.169Z,15.47
2018-10-17T04:47:18.743Z,16.77
2018-10-17T04:49:48.318Z,18.43
2018-10-17T04:52:17.823Z,18.40
2018-10-17T04:54:47.384Z,16.20
2018-10-17T04:57:16.983Z,17.37
2018-10-17T04:59:46.587Z,21.97
2018-10-17T05:02:16.083Z,21.17
2018-10-17T05:04:45.728Z,20.90
2018-10-17T05:07:15.224Z,21.90
2018-10-17T05:09:44.795Z,21.57
2018-10-17T05:12:14.450Z,20.40
2018-10-17T05:14:44.075Z,20.57
2018-10-17T05:17:13.674Z,19.50
2018-10-17T05:19:43.204Z,20.90
2018-10-17T05:22:12.797Z,18.90
2018-10-17T05:24:42.376Z,16.97
2018-10-17T05:27:11.980Z,16.57
2018-10-17T05:29:42.686Z,20.73
2018-10-17T05:32:12.211Z,19.13
2018-10-17T05:34:41.899Z,16.60
2018-10-17T05:37:11.519Z,17.17
2018-10-17T05:39:41.026Z,17.73
2018-10-17T05:42:10.545Z,16.50
2018-10-17T05:44:40.151Z,15.93
2018-10-17T05:47:09.851Z,16.03
2018-10-17T05:49:39.278Z,15.97
2018-10-17T05:52:08.849Z,15.70
2018-10-17T05:54:38.352Z,16.20
2018-10-17T05:57:07.993Z,15.03
2018-10-17T05:59:37.518Z,15.83
2018-10-17T06:02:15.010Z,10.77
2018-10-17T06:04:44.531Z,12.83
2018-10-17T06:07:14.219Z,11.73
2018-10-17T06:09:43.666Z,12.53
2018-10-17T06:12:13.285Z,11.17
2018-10-17T06:14:42.831Z,9.73
2018-10-17T06:17:12.363Z,10.93
2018-10-17T06:19:41.907Z,9.10
2018-10-17T06:22:11.438Z,9.40
2018-10-17T06:24:41.068Z,9.67
2018-10-17T06:27:10.634Z,10.07
2018-10-17T06:29:40.274Z,8.67
2018-10-17T06:32:09.802Z,9.03
2018-10-17T06:34:39.418Z,10.00
2018-10-17T06:37:09.308Z,8.73
2018-10-17T06:39:38.885Z,9.50
2018-10-17T06:42:08.408Z,9.73
2018-10-17T06:44:37.983Z,10.07
2018-10-17T06:47:07.731Z,10.13
2018-10-17T06:49:37.299Z,9.43
2018-10-17T06:52:06.865Z,11.83
2018-10-17T06:54:36.572Z,10.43
2018-10-17T06:57:06.259Z,12.13
2018-10-17T06:59:35.827Z,11.93
2018-10-17T07:02:05.506Z,11.67
2018-10-17T07:04:35.011Z,10.07
2018-10-17T07:07:04.705Z,9.57
2018-10-17T07:09:34.171Z,9.77
2018-10-17T07:12:03.771Z,9.47
2018-10-17T07:14:33.351Z,9.77
2018-10-17T07:17:02.946Z,10.30
2018-10-17T07:19:32.471Z,9.47
2018-10-17T07:22:02.957Z,10.55
2018-10-17T07:24:32.596Z,10.77
2018-10-17T07:27:02.182Z,9.07
2018-10-17T07:29:32.909Z,10.47
2018-10-17T07:32:02.350Z,9.10
2018-10-17T07:34:31.863Z,9.37
2018-10-17T07:37:01.412Z,8.63
2018-10-17T07:39:30.978Z,9.60
2018-10-17T07:42:00.515Z,11.67
2018-10-17T07:44:30.208Z,8.77
2018-10-17T07:46:59.802Z,8.07
2018-10-17T07:49:29.416Z,9.27
2018-10-17T07:51:58.964Z,9.50
2018-10-17T07:54:28.523Z,9.83
2018-10-17T07:56:58.063Z,8.77
2018-10-17T07:59:27.705Z,8.17
2018-10-17T08:01:57.197Z,7.67
2018-10-17T08:04:26.800Z,8.07
2018-10-17T08:06:56.434Z,7.27
2018-10-17T08:09:25.920Z,9.00
2018-10-17T08:14:18.249Z,7.43
2018-10-17T08:16:47.769Z,6.93
2018-10-17T08:19:17.326Z,6.97
2018-10-17T08:21:47.168Z,6.40
2018-10-17T08:24:16.853Z,7.33
2018-10-17T08:26:46.364Z,6.40
2018-10-17T08:29:16.025Z,7.30
2018-10-17T08:31:45.582Z,6.60
2018-10-17T08:34:15.111Z,5.83
2018-10-17T08:36:44.827Z,6.03
2018-10-17T08:39:14.266Z,9.63
2018-10-17T08:41:43.873Z,7.23
2018-10-17T08:44:13.438Z,6.23
2018-10-17T08:46:43.046Z,5.87
2018-10-17T08:49:12.571Z,5.70
2018-10-17T08:51:42.106Z,6.00
2018-10-17T08:54:11.598Z,5.97
2018-10-17T08:56:41.145Z,6.13
2018-10-17T08:59:10.704Z,6.10
2018-10-17T09:01:40.273Z,6.03
2018-10-17T09:04:09.850Z,6.33
2018-10-17T09:06:39.379Z,6.50
2018-10-17T09:09:11.722Z,6.57
2018-10-17T09:11:41.834Z,8.00
2018-10-17T09:14:11.885Z,6.53
2018-10-17T09:16:41.473Z,11.17
2018-10-17T09:19:11.312Z,6.00
2018-10-17T09:21:41.136Z,6.00
2018-10-17T09:24:10.497Z,5.83
2018-10-17T09:26:39.955Z,6.10
2018-10-17T09:29:09.510Z,5.80
2018-10-17T09:31:39.071Z,5.73
2018-10-17T09:34:08.695Z,5.23
2018-10-17T09:36:38.186Z,5.63
2018-10-17T09:39:09.787Z,5.80
2018-10-17T09:41:39.408Z,6.10
2018-10-17T09:44:09.057Z,5.90
2018-10-17T09:46:38.680Z,6.37
2018-10-17T09:49:08.216Z,5.10
2018-10-17T09:51:37.770Z,18.97
2018-10-17T09:54:07.460Z,5.77
2018-10-17T09:56:36.947Z,6.63
2018-10-17T09:59:06.810Z,6.30
2018-10-17T10:01:41.319Z,5.67
2018-10-17T10:04:11.310Z,5.77
2018-10-17T10:06:40.992Z,5.70
2018-10-17T10:09:11.278Z,5.37
2018-10-17T10:11:40.823Z,6.13
2018-10-17T10:14:10.483Z,6.00
2018-10-17T10:16:39.987Z,5.73
2018-10-17T10:19:09.698Z,7.17
2018-10-17T10:21:39.272Z,5.27
2018-10-17T10:24:08.871Z,6.03
2018-10-17T10:26:38.363Z,5.93
2018-10-17T10:29:07.941Z,5.90
2018-10-17T10:31:37.446Z,5.80
2018-10-17T10:34:07.069Z,6.07
2018-10-17T10:36:36.519Z,6.23
2018-10-17T10:39:09.074Z,6.10
2018-10-17T10:41:38.715Z,6.10
2018-10-17T10:44:08.320Z,5.77
2018-10-17T10:46:37.864Z,5.57
2018-10-17T10:49:07.461Z,6.13
2018-10-17T10:51:37.124Z,9.47
2018-10-17T10:54:06.676Z,5.67
2018-10-17T10:56:36.223Z,6.63
2018-10-17T10:59:05.791Z,7.23
2018-10-17T11:01:35.382Z,6.73
2018-10-17T11:04:05.227Z,6.73
2018-10-17T11:06:34.805Z,7.43
2018-10-17T11:09:05.419Z,6.70
2018-10-17T11:11:34.968Z,6.57
2018-10-17T11:14:04.650Z,6.10
2018-10-17T11:16:34.300Z,5.57
2018-10-17T11:19:03.811Z,5.57
2018-10-17T11:21:33.439Z,5.07
2018-10-17T11:24:03.172Z,5.17
2018-10-17T11:26:32.798Z,4.60
2018-10-17T11:29:02.348Z,5.07
2018-10-17T11:31:31.901Z,5.47
2018-10-17T11:34:01.475Z,5.53
2018-10-17T11:36:31.026Z,6.60
2018-10-17T11:39:00.626Z,7.70
2018-10-17T11:41:30.238Z,5.57
2018-10-17T11:43:59.733Z,5.70
2018-10-17T11:46:29.279Z,5.60
2018-10-17T11:48:58.887Z,5.53
2018-10-17T11:51:28.412Z,6.33
2018-10-17T11:53:57.911Z,6.10
2018-10-17T11:56:27.480Z,6.90
2018-10-17T11:58:57.236Z,6.30
2018-10-17T12:01:27.103Z,9.87
2018-10-17T12:03:56.766Z,6.93
2018-10-17T12:06:26.430Z,7.03
2018-10-17T12:08:55.935Z,6.60
2018-10-17T12:11:25.585Z,6.53
2018-10-17T12:13:55.157Z,6.17
2018-10-17T12:16:24.797Z,6.67
2018-10-17T12:18:54.412Z,6.40
2018-10-17T12:21:23.997Z,6.50
2018-10-17T12:23:53.577Z,6.10
2018-10-17T12:26:23.059Z,7.40
2018-10-17T12:28:52.714Z,6.77
2018-10-17T12:31:22.191Z,6.87
2018-10-17T12:33:51.752Z,6.27
2018-10-17T12:36:21.287Z,6.53
2018-10-17T12:38:50.858Z,6.40
2018-10-17T12:41:20.445Z,8.47
2018-10-17T12:43:50.040Z,9.80
2018-10-17T12:46:19.688Z,6.47
2018-10-17T12:48:49.223Z,6.53
2018-10-17T12:51:18.800Z,6.27
2018-10-17T12:53:48.527Z,6.70
2018-10-17T12:56:18.160Z,6.70
2018-10-17T12:58:47.618Z,6.30
2018-10-17T13:01:17.423Z,6.60
2018-10-17T13:03:46.954Z,5.60
2018-10-17T13:06:17.265Z,6.10
2018-10-17T13:08:46.903Z,5.93
2018-10-17T13:11:16.571Z,5.57
2018-10-17T13:13:45.992Z,5.33
2018-10-17T13:16:15.580Z,5.90
2018-10-17T13:18:45.111Z,4.70
2018-10-17T13:21:14.666Z,6.00
2018-10-17T13:23:44.167Z,6.40
2018-10-17T13:26:13.710Z,5.97
2018-10-17T13:28:43.235Z,6.77
2018-10-17T13:31:12.845Z,6.20
2018-10-17T13:33:42.396Z,7.10
2018-10-17T13:36:11.958Z,6.57
2018-10-17T13:38:41.532Z,7.63
2018-10-17T13:41:11.158Z,6.30
2018-10-17T13:43:40.679Z,6.20
2018-10-17T13:46:10.303Z,6.20
2018-10-17T13:48:39.838Z,5.63
2018-10-17T13:51:09.476Z,6.67
2018-10-17T13:53:38.982Z,6.60
2018-10-17T13:56:08.595Z,6.30
2018-10-17T13:58:38.099Z,6.50
2018-10-17T14:01:07.808Z,7.43
2018-10-17T14:03:37.247Z,6.13
2018-10-17T14:06:06.967Z,7.93
2018-10-17T14:08:36.487Z,7.30
2018-10-17T14:11:07.539Z,7.43
2018-10-17T14:13:37.136Z,7.23
2018-10-17T14:16:07.047Z,7.47
2018-10-17T14:18:36.603Z,8.07
2018-10-17T14:21:06.232Z,7.47
2018-10-17T14:23:35.829Z,8.13
2018-10-17T14:26:05.520Z,11.50
2018-10-17T14:28:35.043Z,14.67
2018-10-17T14:31:04.635Z,11.70
2018-10-17T14:33:34.197Z,12.93
2018-10-17T14:36:03.868Z,13.03
2018-10-17T14:38:33.835Z,12.47
2018-10-17T14:41:03.573Z,13.07
2018-10-17T14:43:33.078Z,13.27
2018-10-17T14:46:02.642Z,12.03
2018-10-17T14:48:32.188Z,10.37
2018-10-17T14:51:01.767Z,9.43
2018-10-17T14:53:31.291Z,11.17
2018-10-17T14:56:00.882Z,13.00
2018-10-17T14:58:30.462Z,11.27
2018-10-17T15:00:59.978Z,9.17
2018-10-17T15:03:29.566Z,9.83
2018-10-17T15:05:59.438Z,6.53
2018-10-17T15:08:28.979Z,5.40
2018-10-17T15:10:58.768Z,5.30
2018-10-17T15:13:28.190Z,4.80
2018-10-17T15:15:57.715Z,4.73
2018-10-17T15:18:27.247Z,4.47
2018-10-17T15:20:56.841Z,4.43
2018-10-17T15:23:26.395Z,4.77
2018-10-17T15:25:55.966Z,4.30
2018-10-17T15:28:25.464Z,4.67
2018-10-17T15:30:55.001Z,4.83
2018-10-17T15:33:24.533Z,4.37
2018-10-17T15:35:54.164Z,4.70
2018-10-17T15:38:23.894Z,4.40
2018-10-17T15:40:53.378Z,5.13
2018-10-17T15:43:23.053Z,4.90
2018-10-17T15:45:52.428Z,5.20
2018-10-17T15:48:22.027Z,5.07
2018-10-17T15:50:51.573Z,4.87
2018-10-17T15:53:21.150Z,4.87
2018-10-17T15:55:50.695Z,5.10
2018-10-17T15:58:20.215Z,5.10
2018-10-17T16:00:49.803Z,5.50
2018-10-17T16:03:19.362Z,5.77
2018-10-17T16:05:48.894Z,5.53
2018-10-17T16:08:18.457Z,5.67
2018-10-17T16:10:47.945Z,5.00
2018-10-17T16:13:17.526Z,4.90
2018-10-17T16:15:47.240Z,5.20
2018-10-17T16:18:16.965Z,4.80
2018-10-17T16:20:46.363Z,5.27
2018-10-17T16:23:16.019Z,5.20
2018-10-17T16:25:45.451Z,4.80
2018-10-17T16:28:15.148Z,4.87
2018-10-17T16:30:44.682Z,5.27
2018-10-17T16:33:14.255Z,5.20
2018-10-17T16:35:43.744Z,5.33
2018-10-17T16:38:13.459Z,5.47
2018-10-17T16:40:42.896Z,5.63
2018-10-17T16:43:12.384Z,6.30
2018-10-17T16:45:41.928Z,7.30
2018-10-17T16:48:11.519Z,5.97
2018-10-17T16:50:41.236Z,6.90
2018-10-17T16:53:10.675Z,6.70
2018-10-17T16:55:40.230Z,6.67
2018-10-17T16:58:09.815Z,5.73
2018-10-17T17:00:39.303Z,6.87
2018-10-17T17:03:08.844Z,7.43
2018-10-17T17:05:38.402Z,7.83
2018-10-17T17:08:08.035Z,7.87
2018-10-17T17:10:37.595Z,8.10
2018-10-17T17:13:07.105Z,9.63
2018-10-17T17:15:36.743Z,7.90
2018-10-17T17:18:06.304Z,9.50
2018-10-17T17:20:35.848Z,8.77
2018-10-17T17:23:05.583Z,8.50
2018-10-17T17:25:35.150Z,9.00
2018-10-17T17:28:04.763Z,10.77
2018-10-17T17:30:34.324Z,11.57
2018-10-17T17:33:03.996Z,11.30
2018-10-17T17:35:33.438Z,11.37
2018-10-17T17:38:03.006Z,11.37
2018-10-17T17:40:32.503Z,12.30
2018-10-17T17:43:02.058Z,14.03
2018-10-17T17:48:01.092Z,12.67
2018-10-17T17:50:30.654Z,13.17
2018-10-17T17:53:00.146Z,13.00
2018-10-17T17:55:29.686Z,12.07
2018-10-17T17:57:59.265Z,11.80
2018-10-17T18:00:28.891Z,11.80
2018-10-17T18:02:58.407Z,14.43
2018-10-17T18:05:27.952Z,15.40
2018-10-17T18:07:57.518Z,14.53
2018-10-17T18:10:27.014Z,13.83
2018-10-17T18:12:56.575Z,13.63
2018-10-17T18:15:26.063Z,12.67
2018-10-17T18:17:55.616Z,13.67
2018-10-17T18:20:25.111Z,13.97
2018-10-17T18:22:54.662Z,15.43
2018-10-17T18:25:24.163Z,15.03
2018-10-17T18:27:54.867Z,12.27
2018-10-17T18:30:24.376Z,13.33
2018-10-17T18:32:53.941Z,12.20
2018-10-17T18:35:23.503Z,11.07
2018-10-17T18:37:53.051Z,11.27
2018-10-17T18:40:22.708Z,11.77
2018-10-17T18:42:52.252Z,12.77
2018-10-17T18:45:21.878Z,11.93
2018-10-17T18:47:51.439Z,13.40
2018-10-17T18:50:20.974Z,13.87
2018-10-17T18:52:50.485Z,16.13
2018-10-17T18:55:20.042Z,15.47
2018-10-17T18:57:49.610Z,17.27
2018-10-17T19:00:19.167Z,16.87
2018-10-17T19:02:48.694Z,17.50
2018-10-17T19:05:18.276Z,16.60
2018-10-17T19:07:47.779Z,16.23
2018-10-17T19:10:17.338Z,16.83
2018-10-17T19:12:46.857Z,15.77
2018-10-17T19:15:16.487Z,15.47
2018-10-17T19:17:46.012Z,15.57
2018-10-17T19:20:15.532Z,15.27
2018-10-17T19:22:45.066Z,15.80
2018-10-17T19:25:14.576Z,15.50
2018-10-17T19:27:44.142Z,14.93
2018-10-17T19:30:13.713Z,15.67
2018-10-17T19:32:43.202Z,15.97
2018-10-17T19:35:12.751Z,16.10
2018-10-17T19:37:42.242Z,16.83
2018-10-17T19:40:12.146Z,16.90
2018-10-17T19:42:41.673Z,18.83
2018-10-17T19:45:11.620Z,18.43
2018-10-17T19:47:41.572Z,19.33
2018-10-17T19:50:11.106Z,22.13
2018-10-17T19:52:40.635Z,26.20
2018-10-17T19:55:10.851Z,27.27
2018-10-17T19:57:40.444Z,30.67
2018-10-17T20:00:12.081Z,32.47
2018-10-17T20:02:41.999Z,38.30
2018-10-17T20:05:11.978Z,38.53
2018-10-17T20:07:41.577Z,37.03
2018-10-17T20:10:11.187Z,38.93
2018-10-17T20:12:40.718Z,41.30
2018-10-17T20:15:10.265Z,39.27
2018-10-17T20:17:39.782Z,40.87
2018-10-17T20:20:09.345Z,38.47
2018-10-17T20:22:38.868Z,38.40
2018-10-17T20:25:08.655Z,37.63
2018-10-17T20:27:38.243Z,37.73
2018-10-17T20:30:08.826Z,38.70
2018-10-17T20:32:38.329Z,44.20
2018-10-17T20:35:08.231Z,45.57
2018-10-17T20:37:37.815Z,39.53
2018-10-17T20:40:07.408Z,36.00
2018-10-17T20:42:36.915Z,44.90
2018-10-17T20:45:07.079Z,56.83
2018-10-17T20:47:36.620Z,64.63
2018-10-17T20:50:06.981Z,69.17
2018-10-17T20:52:36.502Z,72.37
2018-10-17T20:55:06.644Z,68.63
2018-10-17T20:57:36.379Z,65.30
2018-10-17T21:00:06.394Z,69.70
2018-10-17T21:02:35.931Z,63.63
2018-10-17T21:05:06.254Z,65.37
2018-10-17T21:07:36.050Z,63.53
2018-10-17T21:10:05.954Z,64.33
2018-10-17T21:12:35.496Z,61.90
2018-10-17T21:15:05.768Z,56.90
2018-10-17T21:17:35.299Z,56.47
2018-10-17T21:20:05.028Z,53.13
2018-10-17T21:22:34.542Z,50.03
2018-10-17T21:25:04.107Z,51.43
2018-10-17T21:27:33.626Z,43.87
2018-10-17T21:30:03.216Z,39.57
2018-10-17T21:32:32.701Z,35.30
2018-10-17T21:35:02.230Z,33.80
2018-10-17T21:37:31.800Z,32.30
2018-10-17T21:40:01.315Z,32.10
2018-10-17T21:42:30.872Z,33.97
2018-10-17T21:45:00.375Z,32.37
2018-10-17T21:47:30.083Z,32.43
2018-10-17T21:49:59.559Z,34.10
2018-10-17T21:52:29.062Z,36.37
2018-10-17T21:54:58.582Z,34.50
2018-10-17T21:57:28.123Z,34.47
2018-10-17T21:59:57.678Z,34.43
2018-10-17T22:02:27.244Z,36.57
2018-10-17T22:04:56.794Z,37.77
2018-10-17T22:07:26.375Z,38.93
2018-10-17T22:09:56.026Z,38.40
2018-10-17T22:12:25.445Z,36.53
2018-10-17T22:14:55.018Z,38.47
2018-10-17T22:17:28.927Z,37.33
2018-10-17T22:19:58.733Z,38.80
2018-10-17T22:22:28.367Z,38.20
2018-10-17T22:24:57.919Z,36.67
2018-10-17T22:27:27.464Z,37.67
2018-10-17T22:29:57.081Z,38.47
2018-10-17T22:32:26.630Z,38.10
2018-10-17T22:34:56.123Z,38.27
2018-10-17T22:37:25.678Z,37.77
2018-10-17T22:39:55.202Z,37.83
2018-10-17T22:42:24.766Z,36.17
2018-10-17T22:44:54.314Z,37.53
2018-10-17T22:47:23.811Z,36.03
2018-10-17T22:49:53.356Z,36.03
2018-10-17T22:52:22.883Z,34.77
2018-10-17T22:54:52.430Z,32.30
2018-10-17T22:57:21.966Z,30.00
2018-10-17T22:59:51.511Z,28.63
2018-10-17T23:02:21.091Z,27.30
2018-10-17T23:04:50.582Z,25.00
2018-10-17T23:07:20.118Z,25.20
2018-10-17T23:09:49.644Z,23.90
2018-10-17T23:12:19.226Z,23.23
2018-10-17T23:14:48.734Z,22.47
2018-10-17T23:17:18.286Z,24.43
2018-10-17T23:19:47.855Z,24.47
2018-10-17T23:22:17.419Z,23.17
2018-10-17T23:24:46.998Z,24.70
2018-10-17T23:27:16.506Z,22.90
2018-10-17T23:29:46.062Z,21.87
2018-10-17T23:32:15.611Z,22.00
2018-10-17T23:34:45.113Z,22.13
2018-10-17T23:37:14.682Z,21.93
2018-10-17T23:39:44.178Z,21.57
2018-10-17T23:42:13.768Z,21.63
2018-10-17T23:44:43.297Z,23.03
2018-10-17T23:47:12.807Z,24.03
2018-10-17T23:49:42.411Z,23.23
2018-10-17T23:52:11.909Z,24.47
2018-10-17T23:54:41.450Z,23.60
2018-10-17T23:57:10.991Z,22.33
2018-10-17T23:59:40.556Z,22.77
